createdAt,value
2018-06-15T00:04:08.648Z,17.87
2018-06-15T00:09:11.829Z,20.07
2018-06-15T00:14:14.746Z,22.13
2018-06-15T00:19:17.869Z,21.53
2018-06-15T00:24:21.005Z,22.40
2018-06-15T00:29:24.217Z,22.53
2018-06-15T00:34:27.426Z,22.73
2018-06-15T00:39:30.591Z,21.57
2018-06-15T00:44:33.725Z,23.00
2018-06-15T00:49:36.932Z,21.90
2018-06-15T00:54:40.121Z,24.13
2018-06-15T00:59:43.382Z,23.93
2018-06-15T01:04:46.509Z,22.20
2018-06-15T01:09:49.689Z,22.77
2018-06-15T01:14:52.809Z,21.67
2018-06-15T01:19:56.145Z,22.97
2018-06-15T01:24:59.275Z,21.63
2018-06-15T01:30:02.396Z,24.73
2018-06-15T01:35:05.550Z,24.63
2018-06-15T01:40:09.792Z,25.30
2018-06-15T01:45:12.961Z,25.67
2018-06-15T01:50:16.118Z,26.73
2018-06-15T01:55:19.264Z,26.50
2018-06-15T02:00:22.442Z,27.20
2018-06-15T02:05:25.634Z,29.27
2018-06-15T02:10:28.801Z,30.23
2018-06-15T02:15:32.022Z,30.57
2018-06-15T02:20:38.891Z,31.07
2018-06-15T02:25:42.770Z,30.23
2018-06-15T02:30:46.023Z,31.33
2018-06-15T02:35:49.281Z,32.10
2018-06-15T02:40:52.501Z,32.00
2018-06-15T02:45:55.698Z,32.30
2018-06-15T02:50:58.944Z,33.13
2018-06-15T02:56:02.151Z,33.13
2018-06-15T03:01:05.425Z,34.10
2018-06-15T03:06:08.625Z,33.43
2018-06-15T03:11:11.862Z,34.67
2018-06-15T03:16:15.116Z,36.07
2018-06-15T03:21:18.293Z,36.70
2018-06-15T03:26:21.484Z,33.30
2018-06-15T03:31:24.673Z,34.73
2018-06-15T03:36:29.925Z,36.10
2018-06-15T03:41:33.164Z,37.50
2018-06-15T03:46:37.338Z,37.53
2018-06-15T03:51:40.533Z,36.63
2018-06-15T03:56:43.734Z,35.57
2018-06-15T04:01:46.925Z,36.57
2018-06-15T04:06:50.110Z,39.60
2018-06-15T04:11:53.397Z,39.50
2018-06-15T04:16:56.565Z,40.23
2018-06-15T04:21:59.816Z,38.93
2018-06-15T04:27:03.015Z,39.13
2018-06-15T04:32:06.219Z,37.80
2018-06-15T04:37:10.007Z,39.60
2018-06-15T04:42:13.218Z,40.00
2018-06-15T04:47:16.427Z,39.37
2018-06-15T04:52:19.607Z,37.63
2018-06-15T04:57:22.808Z,37.67
2018-06-15T05:02:26.018Z,39.53
2018-06-15T05:07:29.590Z,40.10
2018-06-15T05:12:32.817Z,36.67
2018-06-15T05:17:36.017Z,38.30
2018-06-15T05:22:39.198Z,39.97
2018-06-15T05:27:42.366Z,41.13
2018-06-15T05:32:45.579Z,40.23
2018-06-15T05:37:48.798Z,43.57
2018-06-15T05:42:52.154Z,44.93
2018-06-15T05:47:57.485Z,43.90
2018-06-15T05:53:00.692Z,45.50
2018-06-15T05:58:03.925Z,44.87
2018-06-15T06:03:07.134Z,46.93
2018-06-15T06:08:10.916Z,43.30
2018-06-15T06:13:14.142Z,43.07
2018-06-15T06:18:17.378Z,39.70
2018-06-15T06:23:20.665Z,41.87
2018-06-15T06:28:23.933Z,43.40
2018-06-15T06:33:27.156Z,42.50
2018-06-15T06:38:30.627Z,43.77
2018-06-15T06:43:33.945Z,45.50
2018-06-15T06:48:37.185Z,44.30
2018-06-15T06:53:40.726Z,44.23
2018-06-15T06:58:43.931Z,44.27
2018-06-15T07:03:47.173Z,45.17
2018-06-15T07:08:52.042Z,44.80
2018-06-15T07:13:56.559Z,41.73
2018-06-15T07:18:59.779Z,39.40
2018-06-15T07:24:03.026Z,40.97
2018-06-15T07:29:06.299Z,41.17
2018-06-15T07:34:09.582Z,36.57
2018-06-15T07:39:12.909Z,38.43
2018-06-15T07:44:16.280Z,32.07
2018-06-15T07:49:19.490Z,31.77
2018-06-15T07:54:22.730Z,33.00
2018-06-15T07:59:26.030Z,32.97
2018-06-15T08:04:29.274Z,27.23
2018-06-15T08:09:32.694Z,29.97
2018-06-15T08:14:35.925Z,26.20
2018-06-15T08:19:40.765Z,27.10
2018-06-15T08:24:44.022Z,29.30
2018-06-15T08:29:47.221Z,26.33
2018-06-15T08:34:50.442Z,26.37
2018-06-15T08:39:53.638Z,18.97
2018-06-15T08:44:57.104Z,21.43
2018-06-15T08:50:00.450Z,23.60
2018-06-15T08:55:03.712Z,22.93
2018-06-15T09:00:06.921Z,23.27
2018-06-15T09:05:10.096Z,23.37
2018-06-15T09:10:13.503Z,22.37
2018-06-15T09:15:16.745Z,23.63
2018-06-15T09:20:23.318Z,22.67
2018-06-15T09:25:26.575Z,25.93
2018-06-15T09:30:29.762Z,23.90
2018-06-15T09:35:32.969Z,25.87
2018-06-15T09:40:36.174Z,20.73
2018-06-15T09:45:39.362Z,14.50
2018-06-15T09:50:42.634Z,13.20
2018-06-15T09:55:45.882Z,14.37
2018-06-15T10:01:01.661Z,11.07
2018-06-15T10:06:05.058Z,8.77
2018-06-15T10:11:08.476Z,8.63
2018-06-15T10:16:22.054Z,9.33
2018-06-15T10:21:25.230Z,8.77
2018-06-15T10:26:28.380Z,8.43
2018-06-15T10:31:31.570Z,6.70
2018-06-15T10:36:34.762Z,7.47
2018-06-15T10:41:39.270Z,5.40
2018-06-15T10:46:42.413Z,5.97
2018-06-15T10:51:45.604Z,5.83
2018-06-15T10:56:48.778Z,5.07
2018-06-15T11:01:52.049Z,5.40
2018-06-15T11:06:56.313Z,4.97
2018-06-15T11:12:00.118Z,5.60
2018-06-15T11:17:03.309Z,5.60
2018-06-15T11:22:06.530Z,5.50
2018-06-15T11:27:10.589Z,6.23
2018-06-15T11:32:13.862Z,5.17
2018-06-15T11:37:19.126Z,5.83
2018-06-15T11:42:22.405Z,6.40
2018-06-15T11:47:27.418Z,5.63
2018-06-15T11:52:30.589Z,6.27
2018-06-15T11:57:34.898Z,6.27
2018-06-15T12:02:38.210Z,7.43
2018-06-15T12:07:41.515Z,6.97
2018-06-15T12:12:44.691Z,8.37
2018-06-15T12:17:49.799Z,6.90
2018-06-15T12:22:53.213Z,7.53
2018-06-15T12:27:56.485Z,7.90
2018-06-15T12:32:59.671Z,8.07
2018-06-15T12:38:02.913Z,7.00
2018-06-15T12:43:06.290Z,8.00
2018-06-15T12:48:09.529Z,8.83
2018-06-15T12:53:12.818Z,9.17
2018-06-15T12:58:15.994Z,7.67
2018-06-15T13:03:20.305Z,7.93
2018-06-15T13:08:23.622Z,8.93
2018-06-15T13:13:26.842Z,8.50
2018-06-15T13:18:30.377Z,7.77
2018-06-15T13:23:33.601Z,7.53
2018-06-15T13:28:37.580Z,7.10
2018-06-15T13:33:40.781Z,7.50
2018-06-15T13:38:44.126Z,7.23
2018-06-15T13:43:47.291Z,6.60
2018-06-15T13:48:51.036Z,6.73
2018-06-15T13:53:54.235Z,6.80
2018-06-15T13:58:57.409Z,6.50
2018-06-15T14:04:00.628Z,6.43
2018-06-15T14:09:04.930Z,6.67
2018-06-15T14:14:08.534Z,7.17
2018-06-15T14:19:12.712Z,7.33
2018-06-15T14:24:18.255Z,6.73
2018-06-15T14:29:21.418Z,6.53
2018-06-15T14:34:24.657Z,5.90
2018-06-15T14:39:27.851Z,5.37
2018-06-15T14:44:31.230Z,6.07
2018-06-15T14:49:34.482Z,6.87
2018-06-15T14:54:37.736Z,6.70
2018-06-15T14:59:40.923Z,6.13
2018-06-15T15:04:44.196Z,6.07
2018-06-15T15:09:48.242Z,5.57
2018-06-15T15:14:52.145Z,5.70
2018-06-15T15:19:55.345Z,5.13
2018-06-15T15:25:00.310Z,5.00
2018-06-15T15:30:03.595Z,5.97
2018-06-15T15:35:07.278Z,7.50
2018-06-15T15:40:10.467Z,11.60
2018-06-15T15:45:13.852Z,9.73
2018-06-15T15:50:17.086Z,5.30
2018-06-15T15:55:20.452Z,5.30
2018-06-15T16:00:25.738Z,5.80
2018-06-15T16:05:28.976Z,5.77
2018-06-15T16:10:32.290Z,5.77
2018-06-15T16:15:35.781Z,5.67
2018-06-15T16:20:38.761Z,6.63
2018-06-15T16:25:42.701Z,5.07
2018-06-15T16:30:45.946Z,6.20
2018-06-15T16:35:50.241Z,6.00
2018-06-15T16:40:53.530Z,5.73
2018-06-15T16:45:56.765Z,5.70
2018-06-15T16:51:00.466Z,8.10
2018-06-15T16:56:06.274Z,7.73
2018-06-15T17:01:09.512Z,10.37
2018-06-15T17:06:12.814Z,4.90
2018-06-15T17:11:16.022Z,6.67
2018-06-15T17:16:19.314Z,5.80
2018-06-15T17:21:23.014Z,4.30
2018-06-15T17:26:29.057Z,5.63
2018-06-15T17:31:32.250Z,4.87
2018-06-15T17:36:38.773Z,5.00
2018-06-15T17:41:43.315Z,4.47
2018-06-15T17:46:47.332Z,4.23
2018-06-15T17:51:50.535Z,4.23
2018-06-15T17:56:53.771Z,4.30
2018-06-15T18:01:57.029Z,4.53
2018-06-15T18:07:01.180Z,4.73
2018-06-15T18:12:04.382Z,3.80
2018-06-15T18:17:07.577Z,3.87
2018-06-15T18:22:11.147Z,4.20
2018-06-15T18:27:14.369Z,4.43
2018-06-15T18:32:17.622Z,4.27
2018-06-15T18:37:26.094Z,3.87
2018-06-15T18:42:29.409Z,3.17
2018-06-15T18:47:32.670Z,3.70
2018-06-15T18:52:36.157Z,3.70
2018-06-15T18:57:41.470Z,3.60
2018-06-15T19:02:44.701Z,4.37
2018-06-15T19:07:47.944Z,3.87
2018-06-15T19:12:52.220Z,3.43
2018-06-15T19:17:55.514Z,4.17
2018-06-15T19:22:58.807Z,3.83
2018-06-15T19:28:02.007Z,3.53
2018-06-15T19:33:05.324Z,3.57
2018-06-15T19:38:10.583Z,4.13
2018-06-15T19:43:14.854Z,3.63
2018-06-15T19:48:18.100Z,3.57
2018-06-15T19:53:22.406Z,3.87
2018-06-15T19:58:25.610Z,4.27
2018-06-15T20:03:28.879Z,3.83
2018-06-15T20:08:32.071Z,3.93
2018-06-15T20:13:35.274Z,4.30
2018-06-15T20:18:38.499Z,4.00
2018-06-15T20:23:41.731Z,4.30
2018-06-15T20:28:45.043Z,4.83
2018-06-15T20:33:48.243Z,5.00
2018-06-15T20:38:51.494Z,4.50
2018-06-15T20:43:54.675Z,5.00
2018-06-15T20:49:01.662Z,5.30
2018-06-15T20:54:04.909Z,5.03
2018-06-15T20:59:08.090Z,5.50
2018-06-15T21:04:11.342Z,5.30
2018-06-15T21:09:15.392Z,5.00
2018-06-15T21:14:18.609Z,5.03
2018-06-15T21:19:23.797Z,4.73
2018-06-15T21:24:26.981Z,4.70
2018-06-15T21:29:30.175Z,4.77
2018-06-15T21:34:33.414Z,4.93
2018-06-15T21:39:36.586Z,5.53
2018-06-15T21:44:39.765Z,5.43
2018-06-15T21:49:42.997Z,5.03
2018-06-15T21:54:46.369Z,4.90
2018-06-15T21:59:49.557Z,6.07
2018-06-15T22:04:52.904Z,5.80
2018-06-15T22:09:56.157Z,5.80
2018-06-15T22:14:59.358Z,5.23
2018-06-15T22:20:03.430Z,4.57
2018-06-15T22:25:06.624Z,4.73
2018-06-15T22:30:09.883Z,5.17
2018-06-15T22:35:13.102Z,4.83
2018-06-15T22:40:16.301Z,5.23
2018-06-15T22:45:19.494Z,5.87
2018-06-15T22:50:22.681Z,5.00
2018-06-15T22:55:25.927Z,5.83
2018-06-15T23:00:29.161Z,4.90
2018-06-15T23:05:32.374Z,5.33
2018-06-15T23:10:35.541Z,5.10
2018-06-15T23:15:38.738Z,5.43
2018-06-15T23:20:45.611Z,4.00
2018-06-15T23:25:48.789Z,4.43
2018-06-15T23:30:52.623Z,4.40
2018-06-15T23:35:56.817Z,3.80
2018-06-15T23:40:59.986Z,3.33
2018-06-15T23:46:03.179Z,3.53
2018-06-15T23:51:06.420Z,3.73
2018-06-15T23:56:09.609Z,4.00
